createdAt,value
2017-03-15T00:00:53.540Z,3.77
2017-03-15T00:02:03.834Z,3.85
2017-03-15T00:03:14.104Z,3.84
2017-03-15T00:04:24.364Z,3.81
2017-03-15T00:05:36.630Z,3.81
2017-03-15T00:06:46.909Z,3.82
2017-03-15T00:07:57.175Z,3.76
2017-03-15T00:09:07.107Z,3.77
2017-03-15T00:10:17.361Z,3.82
2017-03-15T00:11:28.015Z,3.7
2017-03-15T00:12:37.954Z,3.78
2017-03-15T00:13:47.592Z,3.74
2017-03-15T00:14:57.540Z,3.68
2017-03-15T00:16:07.795Z,3.7
2017-03-15T00:17:18.053Z,3.59
2017-03-15T00:18:27.996Z,3.56
2017-03-15T00:19:38.257Z,3.58
2017-03-15T00:20:48.538Z,3.55
2017-03-15T00:21:58.803Z,3.45
2017-03-15T00:23:09.004Z,3.48
2017-03-15T00:24:19.264Z,3.45
2017-03-15T00:25:29.531Z,3.45
2017-03-15T00:26:39.475Z,3.45
2017-03-15T00:27:48.800Z,3.49
2017-03-15T00:28:59.067Z,3.46
2017-03-15T00:30:09.012Z,3.66
2017-03-15T00:31:18.981Z,3.63
2017-03-15T00:32:29.238Z,3.71
2017-03-15T00:33:38.877Z,3.82
2017-03-15T00:34:49.133Z,3.86
2017-03-15T00:35:59.412Z,3.86
2017-03-15T00:37:09.359Z,3.76
2017-03-15T00:38:19.616Z,3.81
2017-03-15T00:39:29.559Z,3.76
2017-03-15T00:40:39.817Z,3.76
2017-03-15T00:41:49.763Z,3.74
2017-03-15T00:43:00.055Z,3.78
2017-03-15T00:44:10.316Z,3.91
2017-03-15T00:45:20.583Z,3.89
2017-03-15T00:46:30.246Z,3.96
2017-03-15T00:47:40.192Z,4.03
2017-03-15T00:48:50.140Z,4.06
2017-03-15T00:50:00.095Z,4.13
2017-03-15T00:51:10.356Z,4.21
2017-03-15T00:52:20.304Z,4.2
2017-03-15T00:53:30.580Z,4.22
2017-03-15T00:54:40.843Z,4.14
2017-03-15T00:55:51.104Z,4.25
2017-03-15T00:57:01.372Z,4.21
2017-03-15T00:58:13.729Z,4.28
2017-03-15T00:59:23.677Z,4.31
2017-03-15T01:00:33.638Z,4.3
2017-03-15T01:01:43.896Z,4.4
2017-03-15T01:02:54.154Z,4.28
2017-03-15T01:04:04.108Z,4.39
2017-03-15T01:05:14.053Z,4.46
2017-03-15T01:06:24.001Z,4.36
2017-03-15T01:07:33.945Z,4.38
2017-03-15T01:08:43.919Z,4.27
2017-03-15T01:09:53.870Z,4.28
2017-03-15T01:11:03.505Z,4.25
2017-03-15T01:12:13.763Z,4.24
2017-03-15T01:13:24.024Z,4.18
2017-03-15T01:14:33.971Z,4.14
2017-03-15T01:15:44.241Z,4.13
2017-03-15T01:16:54.506Z,4.12
2017-03-15T01:18:04.163Z,4.07
2017-03-15T01:19:14.426Z,4.02
2017-03-15T01:20:24.379Z,3.96
2017-03-15T01:21:34.024Z,3.94
2017-03-15T01:22:43.971Z,3.96
2017-03-15T01:23:53.918Z,3.92
2017-03-15T01:25:03.864Z,4.07
2017-03-15T01:26:14.118Z,4.06
2017-03-15T01:27:26.378Z,4.03
2017-03-15T01:28:36.645Z,4.02
2017-03-15T01:29:46.901Z,4.07
2017-03-15T01:30:57.176Z,4.16
2017-03-15T01:32:07.442Z,4.18
2017-03-15T01:33:17.701Z,4.22
2017-03-15T01:34:27.958Z,4.32
2017-03-15T01:35:38.219Z,4.4
2017-03-15T01:36:48.475Z,4.49
2017-03-15T01:37:58.436Z,4.38
2017-03-15T01:39:08.384Z,4.5
2017-03-15T01:40:18.654Z,4.61
2017-03-15T01:41:28.598Z,4.64
2017-03-15T01:42:38.869Z,4.57
2017-03-15T01:43:49.130Z,4.58
2017-03-15T01:44:59.091Z,4.53
2017-03-15T01:46:09.345Z,4.71
2017-03-15T01:47:19.310Z,4.6
2017-03-15T01:48:29.261Z,4.7
2017-03-15T01:49:39.210Z,4.74
2017-03-15T01:50:49.155Z,4.78
2017-03-15T01:51:59.418Z,4.83
2017-03-15T01:53:09.679Z,4.76
2017-03-15T01:54:19.938Z,4.84
2017-03-15T01:55:29.884Z,4.89
2017-03-15T01:56:39.839Z,4.86
2017-03-15T01:57:50.097Z,4.95
2017-03-15T01:59:00.370Z,5.04
2017-03-15T02:00:10.633Z,5
2017-03-15T02:01:20.896Z,5.05
2017-03-15T02:02:31.166Z,5.02
2017-03-15T02:03:41.425Z,5.13
2017-03-15T02:04:51.691Z,5.13
2017-03-15T02:06:01.956Z,5.13
2017-03-15T02:07:12.215Z,5.2
2017-03-15T02:08:22.476Z,5.19
2017-03-15T02:09:32.737Z,5.23
2017-03-15T02:10:42.375Z,5.23
2017-03-15T02:11:52.643Z,5.23
2017-03-15T02:13:02.587Z,5.28
2017-03-15T02:14:12.846Z,5.36
2017-03-15T02:15:23.111Z,5.46
2017-03-15T02:16:33.381Z,5.49
2017-03-15T02:17:43.331Z,5.51
2017-03-15T02:18:53.269Z,5.56
2017-03-15T02:20:03.531Z,5.58
2017-03-15T02:21:13.479Z,5.52
2017-03-15T02:22:23.737Z,5.62
2017-03-15T02:23:34.021Z,5.56
2017-03-15T02:24:43.969Z,5.56
2017-03-15T02:25:54.231Z,5.65
2017-03-15T02:27:04.499Z,5.65
2017-03-15T02:28:14.443Z,5.74
2017-03-15T02:29:24.709Z,5.7
2017-03-15T02:30:34.976Z,5.67
2017-03-15T02:31:45.227Z,5.69
2017-03-15T02:32:55.176Z,5.64
2017-03-15T02:34:04.806Z,5.58
2017-03-15T02:35:15.059Z,5.62
2017-03-15T02:36:25.317Z,5.52
2017-03-15T02:37:35.265Z,5.51
2017-03-15T02:38:45.532Z,5.56
2017-03-15T02:39:55.490Z,5.51
2017-03-15T02:41:05.752Z,5.46
2017-03-15T02:42:16.014Z,5.47
2017-03-15T02:43:26.284Z,5.36
2017-03-15T02:44:36.550Z,5.4
2017-03-15T02:45:46.500Z,5.49
2017-03-15T02:46:56.463Z,5.46
2017-03-15T02:48:06.737Z,5.44
2017-03-15T02:49:17.005Z,5.4
2017-03-15T02:50:26.639Z,5.41
2017-03-15T02:51:36.592Z,5.38
2017-03-15T02:52:46.853Z,5.29
2017-03-15T02:53:57.123Z,5.38
2017-03-15T02:55:07.398Z,5.33
2017-03-15T02:56:17.659Z,5.33
2017-03-15T02:57:27.597Z,5.2
2017-03-15T02:58:37.861Z,5.22
2017-03-15T02:59:48.125Z,5.23
2017-03-15T03:00:57.760Z,5.31
2017-03-15T03:02:07.698Z,5.34
2017-03-15T03:03:17.640Z,5.34
2017-03-15T03:04:27.586Z,5.29
2017-03-15T03:05:37.538Z,5.29
2017-03-15T03:06:47.806Z,5.36
2017-03-15T03:07:58.080Z,5.25
2017-03-15T03:09:08.343Z,5.29
2017-03-15T03:10:18.606Z,5.23
2017-03-15T03:11:28.867Z,5.19
2017-03-15T03:12:38.820Z,5.18
2017-03-15T03:13:48.771Z,5.2
2017-03-15T03:14:58.725Z,5.23
2017-03-15T03:16:08.997Z,5.31
2017-03-15T03:17:18.977Z,5.36
2017-03-15T03:18:29.235Z,5.29
2017-03-15T03:19:39.186Z,5.34
2017-03-15T03:20:49.444Z,5.28
2017-03-15T03:21:59.708Z,5.26
2017-03-15T03:23:09.651Z,5.33
2017-03-15T03:24:19.591Z,5.33
2017-03-15T03:25:29.860Z,5.31
2017-03-15T03:26:39.495Z,5.34
2017-03-15T03:27:49.757Z,5.33
2017-03-15T03:29:00.015Z,5.33
2017-03-15T03:30:10.279Z,5.29
2017-03-15T03:31:20.558Z,5.2
2017-03-15T03:32:30.816Z,5.25
2017-03-15T03:33:41.079Z,5.34
2017-03-15T03:34:51.026Z,5.25
2017-03-15T03:36:01.280Z,5.34
2017-03-15T03:37:10.908Z,5.25
2017-03-15T03:38:21.170Z,5.25
2017-03-15T03:39:31.423Z,5.28
2017-03-15T03:40:41.683Z,5.23
2017-03-15T03:41:51.946Z,5.28
2017-03-15T03:43:02.226Z,5.26
2017-03-15T03:44:12.486Z,5.23
2017-03-15T03:45:22.751Z,5.23
2017-03-15T03:46:32.696Z,5.19
2017-03-15T03:47:42.964Z,5.23
2017-03-15T03:48:52.907Z,5.25
2017-03-15T03:50:02.855Z,5.18
2017-03-15T03:51:12.807Z,5.23
2017-03-15T03:52:23.066Z,5.2
2017-03-15T03:53:33.331Z,5.2
2017-03-15T03:54:43.598Z,5.22
2017-03-15T03:55:53.866Z,5.08
2017-03-15T03:57:03.817Z,5.15
2017-03-15T03:58:13.767Z,5.15
2017-03-15T03:59:24.030Z,5.13
2017-03-15T04:00:33.670Z,5.13
2017-03-15T04:01:43.946Z,5.07
2017-03-15T04:02:54.207Z,5.15
2017-03-15T04:04:04.466Z,5.15
2017-03-15T04:05:14.730Z,5.16
2017-03-15T04:06:24.359Z,5.02
2017-03-15T04:07:34.631Z,5.19
2017-03-15T04:08:44.906Z,5.1
2017-03-15T04:09:55.163Z,5.1
2017-03-15T04:11:05.415Z,5.15
2017-03-15T04:12:15.367Z,5.13
2017-03-15T04:13:25.314Z,5.13
2017-03-15T04:14:34.950Z,5.2
2017-03-15T04:15:44.585Z,5.02
2017-03-15T04:16:54.535Z,5
2017-03-15T04:18:04.800Z,5.02
2017-03-15T04:19:14.753Z,5.04
2017-03-15T04:20:25.016Z,4.92
2017-03-15T04:21:35.280Z,4.92
2017-03-15T04:22:45.540Z,5.02
2017-03-15T04:23:55.810Z,5.01
2017-03-15T04:25:06.093Z,5.05
2017-03-15T04:26:16.352Z,5.04
2017-03-15T04:27:26.620Z,5.01
2017-03-15T04:28:36.878Z,4.98
2017-03-15T04:29:46.824Z,4.98
2017-03-15T04:30:57.084Z,5.02
2017-03-15T04:32:07.348Z,4.95
2017-03-15T04:33:17.294Z,5.02
2017-03-15T04:34:27.237Z,5.01
2017-03-15T04:35:37.196Z,4.97
2017-03-15T04:36:47.462Z,5.16
2017-03-15T04:37:57.405Z,5.15
2017-03-15T04:39:07.671Z,5.07
2017-03-15T04:40:17.627Z,5.12
2017-03-15T04:41:27.891Z,5.15
2017-03-15T04:42:38.161Z,5.1
2017-03-15T04:43:48.422Z,5.07
2017-03-15T04:44:58.381Z,5.16
2017-03-15T04:46:08.655Z,5.16
2017-03-15T04:47:18.914Z,5.02
2017-03-15T04:48:29.177Z,5.02
2017-03-15T04:49:39.441Z,5.01
2017-03-15T04:50:49.707Z,5.04
2017-03-15T04:51:59.655Z,5.05
2017-03-15T04:53:09.918Z,5.05
2017-03-15T04:54:20.193Z,5.08
2017-03-15T04:55:30.450Z,5.04
2017-03-15T04:56:40.086Z,5.02
2017-03-15T04:57:50.354Z,5.04
2017-03-15T04:59:00.307Z,5.01
2017-03-15T05:00:10.249Z,4.95
2017-03-15T05:01:20.508Z,4.97
2017-03-15T05:02:30.770Z,4.86
2017-03-15T05:03:41.033Z,4.86
2017-03-15T05:04:51.303Z,4.9
2017-03-15T05:06:01.564Z,4.82
2017-03-15T05:07:11.839Z,4.84
2017-03-15T05:08:21.790Z,4.95
2017-03-15T05:09:32.057Z,4.83
2017-03-15T05:10:42.310Z,4.86
2017-03-15T05:11:52.259Z,4.78
2017-03-15T05:13:02.515Z,4.82
2017-03-15T05:14:12.778Z,4.82
2017-03-15T05:15:23.036Z,4.71
2017-03-15T05:16:33.306Z,4.83
2017-03-15T05:17:43.254Z,4.75
2017-03-15T05:18:53.201Z,4.82
2017-03-15T05:20:03.146Z,4.84
2017-03-15T05:21:13.093Z,4.76
2017-03-15T05:22:23.353Z,4.86
2017-03-15T05:23:33.622Z,4.78
2017-03-15T05:24:43.884Z,4.78
2017-03-15T05:25:53.831Z,4.76
2017-03-15T05:27:04.086Z,4.74
2017-03-15T05:28:14.036Z,4.83
2017-03-15T05:29:24.298Z,4.86
2017-03-15T05:30:34.252Z,4.82
2017-03-15T05:31:44.214Z,4.83
2017-03-15T05:32:54.156Z,4.84
2017-03-15T05:34:04.430Z,4.94
2017-03-15T05:35:14.700Z,4.92
2017-03-15T05:36:24.955Z,4.92
2017-03-15T05:37:34.895Z,4.97
2017-03-15T05:38:45.159Z,5.04
2017-03-15T05:39:55.102Z,5.02
2017-03-15T05:41:05.042Z,5.05
2017-03-15T05:42:15.302Z,5.02
2017-03-15T05:43:25.565Z,5.01
2017-03-15T05:44:35.509Z,5.1
2017-03-15T05:45:45.768Z,5.16
2017-03-15T05:46:55.405Z,5.13
2017-03-15T05:48:05.042Z,5.08
2017-03-15T05:49:15.312Z,5.1
2017-03-15T05:50:25.579Z,5.08
2017-03-15T05:51:35.541Z,5.18
2017-03-15T05:52:45.809Z,5.13
2017-03-15T05:53:55.752Z,5.08
2017-03-15T05:55:05.700Z,5.07
2017-03-15T05:56:15.664Z,5.2
2017-03-15T05:57:25.930Z,5.18
2017-03-15T05:58:36.188Z,5.18
2017-03-15T05:59:46.136Z,5.19
2017-03-15T06:00:56.396Z,5.08
2017-03-15T06:02:06.655Z,5.25
2017-03-15T06:03:16.600Z,5.19
2017-03-15T06:04:26.551Z,5.23
2017-03-15T06:05:36.811Z,5.23
2017-03-15T06:06:47.081Z,5.28
2017-03-15T06:07:57.359Z,5.25
2017-03-15T06:09:07.616Z,5.31
2017-03-15T06:10:17.881Z,5.37
2017-03-15T06:11:27.831Z,5.4
2017-03-15T06:12:37.781Z,5.43
2017-03-15T06:13:48.052Z,5.41
2017-03-15T06:14:58.317Z,5.34
2017-03-15T06:16:08.267Z,5.51
2017-03-15T06:17:18.534Z,5.46
2017-03-15T06:18:28.485Z,5.51
2017-03-15T06:19:38.743Z,5.54
2017-03-15T06:20:49.002Z,5.58
2017-03-15T06:21:58.958Z,5.55
2017-03-15T06:23:08.910Z,5.54
2017-03-15T06:24:18.858Z,5.56
2017-03-15T06:25:29.130Z,5.59
2017-03-15T06:26:39.390Z,5.62
2017-03-15T06:27:49.337Z,5.72
2017-03-15T06:28:58.984Z,5.73
2017-03-15T06:30:08.934Z,5.72
2017-03-15T06:31:19.199Z,5.74
2017-03-15T06:32:29.453Z,5.8
2017-03-15T06:33:39.399Z,5.94
2017-03-15T06:34:49.667Z,5.8
2017-03-15T06:35:59.931Z,5.87
2017-03-15T06:37:10.204Z,5.81
2017-03-15T06:38:20.469Z,5.79
2017-03-15T06:39:30.424Z,5.69
2017-03-15T06:40:39.745Z,5.73
2017-03-15T06:41:49.691Z,5.7
2017-03-15T06:42:59.958Z,5.79
2017-03-15T06:44:09.909Z,5.83
2017-03-15T06:45:19.547Z,5.9
2017-03-15T06:46:29.491Z,5.87
2017-03-15T06:47:39.758Z,5.88
2017-03-15T06:48:50.024Z,5.88
2017-03-15T06:49:59.979Z,5.92
2017-03-15T06:51:09.930Z,5.94
2017-03-15T06:52:19.880Z,5.95
2017-03-15T06:53:29.831Z,6.01
2017-03-15T06:54:40.094Z,5.91
2017-03-15T06:55:50.040Z,5.99
2017-03-15T06:56:59.680Z,5.87
2017-03-15T06:58:09.946Z,5.9
2017-03-15T06:59:20.211Z,5.88
2017-03-15T07:00:30.472Z,5.95
2017-03-15T07:01:40.424Z,5.87
2017-03-15T07:02:50.059Z,5.98
2017-03-15T07:04:00.010Z,5.84
2017-03-15T07:05:10.301Z,5.88
2017-03-15T07:06:20.562Z,5.98
2017-03-15T07:07:29.887Z,5.8
2017-03-15T07:08:40.154Z,5.97
2017-03-15T07:09:50.418Z,5.87
2017-03-15T07:11:00.368Z,5.87
2017-03-15T07:12:10.634Z,5.92
2017-03-15T07:13:20.890Z,5.81
2017-03-15T07:14:31.154Z,5.79
2017-03-15T07:15:41.105Z,5.84
2017-03-15T07:16:50.741Z,5.84
2017-03-15T07:18:00.697Z,5.9
2017-03-15T07:19:10.641Z,5.97
2017-03-15T07:20:20.903Z,5.81
2017-03-15T07:21:31.164Z,5.9
2017-03-15T07:22:40.805Z,5.94
2017-03-15T07:23:50.779Z,5.91
2017-03-15T07:25:00.725Z,5.95
2017-03-15T07:26:10.360Z,5.92
2017-03-15T07:27:20.622Z,5.88
2017-03-15T07:28:30.574Z,5.9
2017-03-15T07:29:40.848Z,5.97
2017-03-15T07:30:50.801Z,5.9
2017-03-15T07:32:00.752Z,5.94
2017-03-15T07:33:11.010Z,5.87
2017-03-15T07:34:21.269Z,5.91
2017-03-15T07:35:31.220Z,5.88
2017-03-15T07:36:41.169Z,5.97
2017-03-15T07:37:51.433Z,5.99
2017-03-15T07:39:01.386Z,5.92
2017-03-15T07:40:11.338Z,5.94
2017-03-15T07:41:21.600Z,5.95
2017-03-15T07:42:31.867Z,5.95
2017-03-15T07:43:41.813Z,5.88
2017-03-15T07:44:52.082Z,5.87
2017-03-15T07:46:02.341Z,5.99
2017-03-15T07:47:12.612Z,5.97
2017-03-15T07:48:22.882Z,6.06
2017-03-15T07:49:33.151Z,5.98
2017-03-15T07:50:43.418Z,5.99
2017-03-15T07:51:53.685Z,6.01
2017-03-15T07:53:03.952Z,5.95
2017-03-15T07:54:13.910Z,5.99
2017-03-15T07:55:24.163Z,5.99
2017-03-15T07:56:34.153Z,6.07
2017-03-15T07:57:44.436Z,6.12
2017-03-15T07:58:54.702Z,6.07
2017-03-15T08:00:04.654Z,6.13
2017-03-15T08:01:14.942Z,6.17
2017-03-15T08:02:24.894Z,6.31
2017-03-15T08:03:35.163Z,6.34
2017-03-15T08:04:45.429Z,6.38
2017-03-15T08:05:55.697Z,6.38
2017-03-15T08:07:05.972Z,6.47
2017-03-15T08:08:16.275Z,6.49
2017-03-15T08:09:26.261Z,6.53
2017-03-15T08:10:36.619Z,6.47
2017-03-15T08:11:46.880Z,6.67
2017-03-15T08:12:56.842Z,6.53
2017-03-15T08:14:07.099Z,6.56
2017-03-15T08:15:17.361Z,6.6
2017-03-15T08:16:27.635Z,6.74
2017-03-15T08:17:37.908Z,6.71
2017-03-15T08:18:48.165Z,6.7
2017-03-15T08:19:58.427Z,6.82
2017-03-15T08:21:08.385Z,6.75
2017-03-15T08:22:18.336Z,6.74
2017-03-15T08:23:28.283Z,6.75
2017-03-15T08:24:38.231Z,6.78
2017-03-15T08:25:47.869Z,6.82
2017-03-15T08:26:58.133Z,6.89
2017-03-15T08:28:08.079Z,6.92
2017-03-15T08:29:18.034Z,6.9
2017-03-15T08:30:27.988Z,6.95
2017-03-15T08:31:38.252Z,7.05
2017-03-15T08:32:48.195Z,7.04
2017-03-15T08:33:58.453Z,7.01
2017-03-15T08:35:08.085Z,7.07
2017-03-15T08:36:18.338Z,7.01
2017-03-15T08:37:28.597Z,7.08
2017-03-15T08:38:38.546Z,7.14
2017-03-15T08:39:48.498Z,7.21
2017-03-15T08:40:58.762Z,7.14
2017-03-15T08:42:08.085Z,7.18
2017-03-15T08:43:18.034Z,7.15
2017-03-15T08:44:27.983Z,7.21
2017-03-15T08:45:37.937Z,7.22
2017-03-15T08:46:47.905Z,7.28
2017-03-15T08:47:57.854Z,7.36
2017-03-15T08:49:08.111Z,7.29
2017-03-15T08:50:18.378Z,7.28
2017-03-15T08:51:28.705Z,7.33
2017-03-15T08:52:38.653Z,7.4
2017-03-15T08:53:48.910Z,7.41
2017-03-15T08:54:58.869Z,7.4
2017-03-15T08:56:08.197Z,7.41
2017-03-15T08:57:18.484Z,7.39
2017-03-15T08:58:28.746Z,7.4
2017-03-15T08:59:38.704Z,7.37
2017-03-15T09:00:48.957Z,7.48
2017-03-15T09:01:59.226Z,7.36
2017-03-15T09:03:09.175Z,7.39
2017-03-15T09:04:19.441Z,7.41
2017-03-15T09:05:29.080Z,7.41
2017-03-15T09:06:38.712Z,7.39
2017-03-15T09:07:48.980Z,7.5
2017-03-15T09:08:59.243Z,7.44
2017-03-15T09:10:09.216Z,7.4
2017-03-15T09:11:19.577Z,7.5
2017-03-15T09:12:29.950Z,7.43
2017-03-15T09:13:40.085Z,7.48
2017-03-15T09:14:50.612Z,7.58
2017-03-15T09:16:00.560Z,7.59
2017-03-15T09:17:10.816Z,7.47
2017-03-15T09:18:21.079Z,7.53
2017-03-15T09:19:31.026Z,7.61
2017-03-15T09:20:40.975Z,7.55
2017-03-15T09:21:50.921Z,7.62
2017-03-15T09:23:01.188Z,7.66
2017-03-15T09:24:11.464Z,7.67
2017-03-15T09:25:21.413Z,7.72
2017-03-15T09:26:31.384Z,7.69
2017-03-15T09:27:41.643Z,7.69
2017-03-15T09:28:51.594Z,7.66
2017-03-15T09:30:01.231Z,7.77
2017-03-15T09:31:11.495Z,7.77
2017-03-15T09:32:21.454Z,7.75
2017-03-15T09:33:31.725Z,7.8
2017-03-15T09:34:41.679Z,7.83
2017-03-15T09:35:51.658Z,7.74
2017-03-15T09:37:01.293Z,7.77
2017-03-15T09:38:11.241Z,7.75
2017-03-15T09:39:21.518Z,7.8
2017-03-15T09:40:31.465Z,7.88
2017-03-15T09:41:41.099Z,7.77
2017-03-15T09:42:50.733Z,7.84
2017-03-15T09:44:00.993Z,7.81
2017-03-15T09:45:10.631Z,7.8
2017-03-15T09:46:20.896Z,7.8
2017-03-15T09:47:31.157Z,7.8
2017-03-15T09:48:41.115Z,7.78
2017-03-15T09:49:50.745Z,7.69
2017-03-15T09:51:01.038Z,7.74
2017-03-15T09:52:10.990Z,7.69
2017-03-15T09:53:20.947Z,7.78
2017-03-15T09:54:31.202Z,7.83
2017-03-15T09:55:41.151Z,7.77
2017-03-15T09:56:50.777Z,7.78
2017-03-15T09:58:00.722Z,7.74
2017-03-15T09:59:10.984Z,7.8
2017-03-15T10:00:21.268Z,7.8
2017-03-15T10:01:31.531Z,7.91
2017-03-15T10:02:41.167Z,7.96
2017-03-15T10:03:51.427Z,7.91
2017-03-15T10:05:01.059Z,7.93
2017-03-15T10:06:11.320Z,7.95
2017-03-15T10:07:21.586Z,8.05
2017-03-15T10:08:31.839Z,8.08
2017-03-15T10:09:41.196Z,8.17
2017-03-15T10:10:51.452Z,8.02
2017-03-15T10:12:01.395Z,8.02
2017-03-15T10:13:13.354Z,8.13
2017-03-15T10:14:23.612Z,8.18
2017-03-15T10:15:33.561Z,8.18
2017-03-15T10:16:43.815Z,8.23
2017-03-15T10:17:53.768Z,8.18
2017-03-15T10:19:04.032Z,8.18
2017-03-15T10:20:14.014Z,8.06
2017-03-15T10:21:23.958Z,8.18
2017-03-15T10:22:33.910Z,8.17
2017-03-15T10:23:43.856Z,8.18
2017-03-15T10:24:53.801Z,8.2
2017-03-15T10:26:03.743Z,8.23
2017-03-15T10:27:13.682Z,8.2
2017-03-15T10:28:23.636Z,8.18
2017-03-15T10:29:33.585Z,8.28
2017-03-15T10:30:43.848Z,8.26
2017-03-15T10:31:53.793Z,8.26
2017-03-15T10:33:04.045Z,8.32
2017-03-15T10:34:14.301Z,8.36
2017-03-15T10:35:24.552Z,8.35
2017-03-15T10:36:34.499Z,8.36
2017-03-15T10:37:44.761Z,8.38
2017-03-15T10:38:54.378Z,8.42
2017-03-15T10:40:04.017Z,8.42
2017-03-15T10:41:14.281Z,8.42
2017-03-15T10:42:24.220Z,8.42
2017-03-15T10:43:34.164Z,8.39
2017-03-15T10:44:44.420Z,8.42
2017-03-15T10:45:54.362Z,8.41
2017-03-15T10:47:04.000Z,8.39
2017-03-15T10:48:13.950Z,8.45
2017-03-15T10:49:24.215Z,8.45
2017-03-15T10:50:34.469Z,8.38
2017-03-15T10:51:44.412Z,8.44
2017-03-15T10:52:54.362Z,8.54
2017-03-15T10:54:04.323Z,8.49
2017-03-15T10:55:13.955Z,8.45
2017-03-15T10:56:24.214Z,8.45
2017-03-15T10:57:34.503Z,8.54
2017-03-15T10:58:44.799Z,8.45
2017-03-15T10:59:56.535Z,8.46
2017-03-15T11:01:06.166Z,8.45
2017-03-15T11:02:15.803Z,8.45
2017-03-15T11:03:25.432Z,8.39
2017-03-15T11:04:35.394Z,8.41
2017-03-15T11:05:45.647Z,8.42
2017-03-15T11:06:55.909Z,8.36
2017-03-15T11:08:05.853Z,8.26
2017-03-15T11:09:15.804Z,8.31
2017-03-15T11:10:25.756Z,8.39
2017-03-15T11:11:35.701Z,8.64
2017-03-15T11:12:45.643Z,8.93
2017-03-15T11:13:55.612Z,9.29
2017-03-15T11:15:05.248Z,9.66
2017-03-15T11:16:15.501Z,9.8
2017-03-15T11:17:25.763Z,9.97
2017-03-15T11:18:35.397Z,10.38
2017-03-15T11:19:45.342Z,10.65
2017-03-15T11:20:54.658Z,10.84
2017-03-15T11:22:04.294Z,11
2017-03-15T11:23:14.242Z,11.1
2017-03-15T11:24:24.506Z,11.04
2017-03-15T11:25:34.455Z,10.95
2017-03-15T11:26:44.407Z,11.18
2017-03-15T11:27:54.667Z,11.49
2017-03-15T11:29:04.934Z,11.8
2017-03-15T11:30:15.196Z,11.78
2017-03-15T11:31:25.458Z,11.49
2017-03-15T11:32:35.727Z,11.58
2017-03-15T11:33:45.679Z,11.45
2017-03-15T11:34:55.625Z,11.63
2017-03-15T11:36:05.287Z,11.45
2017-03-15T11:37:15.250Z,11.77
2017-03-15T11:38:25.527Z,11.7
2017-03-15T11:39:35.802Z,11.71
2017-03-15T11:40:46.066Z,11.6
2017-03-15T11:41:56.335Z,11.65
2017-03-15T11:43:06.297Z,11.68
2017-03-15T11:44:16.569Z,11.7
2017-03-15T11:45:26.830Z,11.78
2017-03-15T11:46:37.100Z,11.93
2017-03-15T11:47:46.742Z,11.88
2017-03-15T11:48:57.009Z,11.93
2017-03-15T11:50:07.278Z,11.93
2017-03-15T11:51:17.227Z,12.11
2017-03-15T11:52:27.172Z,11.97
2017-03-15T11:53:37.441Z,12.02
2017-03-15T11:54:47.707Z,12.25
2017-03-15T11:55:57.970Z,12.21
2017-03-15T11:57:07.925Z,12.2
2017-03-15T11:58:17.876Z,12.1
2017-03-15T11:59:27.857Z,12.28
2017-03-15T12:00:38.125Z,12.11
2017-03-15T12:01:48.402Z,12.36
2017-03-15T12:02:58.361Z,12.47
2017-03-15T12:04:07.688Z,12.47
2017-03-15T12:05:17.332Z,12.53
2017-03-15T12:06:27.296Z,12.66
2017-03-15T12:07:36.945Z,12.51
2017-03-15T12:08:47.207Z,11.73
2017-03-15T12:09:57.160Z,11.62
2017-03-15T12:11:06.800Z,11.38
2017-03-15T12:12:17.061Z,11.71
2017-03-15T12:13:27.328Z,11.41
2017-03-15T12:14:37.304Z,11.31
2017-03-15T12:15:47.571Z,11.68
2017-03-15T12:16:57.523Z,11.41
2017-03-15T12:18:06.535Z,11.53
2017-03-15T12:19:16.798Z,11.73
2017-03-15T12:20:27.065Z,11.91
2017-03-15T12:21:37.016Z,11.96
2017-03-15T12:22:47.279Z,11.88
2017-03-15T12:23:56.921Z,11.91
2017-03-15T12:25:06.577Z,12.12
2017-03-15T12:26:16.846Z,11.96
2017-03-15T12:27:27.117Z,11.93
2017-03-15T12:28:37.078Z,12.35
2017-03-15T12:29:47.031Z,12.17
2017-03-15T12:30:56.977Z,12.28
2017-03-15T12:32:06.618Z,12.3
2017-03-15T12:33:15.944Z,12.68
2017-03-15T12:34:26.212Z,12.93
2017-03-15T12:35:36.479Z,13.47
2017-03-15T12:36:46.742Z,13.39
2017-03-15T12:37:56.378Z,13.5
2017-03-15T12:39:06.639Z,13.23
2017-03-15T12:40:16.898Z,13.02
2017-03-15T12:41:26.225Z,13.12
2017-03-15T12:42:36.498Z,13.06
2017-03-15T12:43:46.768Z,13.39
2017-03-15T12:44:57.036Z,13.67
2017-03-15T12:46:06.673Z,13.17
2017-03-15T12:47:16.945Z,13.76
2017-03-15T12:48:26.901Z,13.97
2017-03-15T12:49:36.856Z,14.36
2017-03-15T12:50:46.501Z,14.48
2017-03-15T12:51:56.773Z,14.96
2017-03-15T12:53:06.724Z,15.41
2017-03-15T12:54:17.001Z,15.29
2017-03-15T12:55:27.269Z,15.51
2017-03-15T12:56:37.535Z,15.37
2017-03-15T12:57:47.810Z,15.47
2017-03-15T12:58:58.091Z,15.32
2017-03-15T13:00:08.049Z,14.86
2017-03-15T13:01:17.378Z,14.9
2017-03-15T13:02:27.019Z,14.49
2017-03-15T13:03:36.664Z,14.25
2017-03-15T13:04:46.942Z,14.13
2017-03-15T13:05:57.209Z,13.78
2017-03-15T13:07:06.848Z,12.5
2017-03-15T13:08:16.802Z,12.4
2017-03-15T13:09:27.071Z,12.57
2017-03-15T13:10:37.021Z,12.58
2017-03-15T13:11:47.021Z,12.43
2017-03-15T13:12:56.972Z,12.35
2017-03-15T13:14:07.238Z,12.47
2017-03-15T13:15:17.505Z,12.48
2017-03-15T13:16:27.456Z,12.35
2017-03-15T13:17:37.095Z,12.15
2017-03-15T13:18:47.069Z,11.88
2017-03-15T13:19:57.074Z,11.71
2017-03-15T13:21:06.714Z,11.6
2017-03-15T13:22:16.671Z,11.23
2017-03-15T13:23:26.625Z,10.9
2017-03-15T13:24:36.574Z,10.58
2017-03-15T13:25:46.523Z,10.43
2017-03-15T13:26:56.783Z,10.17
2017-03-15T13:28:06.727Z,9.95
2017-03-15T13:29:16.988Z,9.77
2017-03-15T13:30:26.937Z,9.9
2017-03-15T13:31:37.203Z,9.9
2017-03-15T13:32:47.465Z,10.06
2017-03-15T13:33:57.422Z,10.15
2017-03-15T13:35:07.061Z,10.1
2017-03-15T13:36:16.700Z,10.02
2017-03-15T13:37:26.661Z,9.99
2017-03-15T13:38:36.612Z,10.15
2017-03-15T13:39:46.567Z,10.09
2017-03-15T13:40:56.832Z,9.95
2017-03-15T13:42:06.779Z,10
2017-03-15T13:43:16.728Z,9.82
2017-03-15T13:44:26.696Z,9.69
2017-03-15T13:45:36.974Z,9.58
2017-03-15T13:46:47.235Z,9.64
2017-03-15T13:47:57.496Z,9.64
2017-03-15T13:49:07.756Z,9.76
2017-03-15T13:50:17.699Z,9.9
2017-03-15T13:51:27.968Z,9.81
2017-03-15T13:52:37.925Z,9.58
2017-03-15T13:53:47.881Z,9.59
2017-03-15T13:54:57.762Z,9.42
2017-03-15T13:56:07.398Z,9.42
2017-03-15T13:57:17.342Z,9.42
2017-03-15T13:58:27.295Z,9.3
2017-03-15T13:59:37.237Z,9.29
2017-03-15T14:00:47.544Z,9.44
2017-03-15T14:01:57.818Z,9.58
2017-03-15T14:03:07.764Z,9.67
2017-03-15T14:04:17.710Z,9.54
2017-03-15T14:05:27.657Z,9.66
2017-03-15T14:06:37.602Z,9.88
2017-03-15T14:07:47.552Z,9.9
2017-03-15T14:08:57.189Z,9.63
2017-03-15T14:10:07.138Z,9.58
2017-03-15T14:11:17.392Z,9.67
2017-03-15T14:12:27.652Z,9.62
2017-03-15T14:13:37.604Z,9.56
2017-03-15T14:14:47.865Z,9.64
2017-03-15T14:15:57.810Z,9.76
2017-03-15T14:17:07.755Z,9.85
2017-03-15T14:18:18.022Z,9.99
2017-03-15T14:19:27.980Z,10.03
2017-03-15T14:20:38.238Z,10.18
2017-03-15T14:21:48.201Z,10.05
2017-03-15T14:22:58.459Z,9.88
2017-03-15T14:24:08.092Z,9.91
2017-03-15T14:25:18.352Z,9.72
2017-03-15T14:26:28.612Z,9.84
2017-03-15T14:27:38.562Z,9.73
2017-03-15T14:28:48.820Z,9.63
2017-03-15T14:29:59.085Z,9.69
2017-03-15T14:31:09.346Z,9.69
2017-03-15T14:32:19.607Z,9.63
2017-03-15T14:33:29.862Z,9.54
2017-03-15T14:34:40.125Z,9.63
2017-03-15T14:35:50.072Z,9.87
2017-03-15T14:37:00.016Z,9.91
2017-03-15T14:38:09.961Z,10.05
2017-03-15T14:39:19.908Z,10.13
2017-03-15T14:40:30.164Z,10.13
2017-03-15T14:41:40.107Z,10.41
2017-03-15T14:42:49.743Z,10.61
2017-03-15T14:43:59.687Z,10.69
2017-03-15T14:45:09.636Z,10.94
2017-03-15T14:46:19.583Z,11.19
2017-03-15T14:47:29.531Z,11.34
2017-03-15T14:48:39.798Z,11.53
2017-03-15T14:49:49.742Z,11.93
2017-03-15T14:51:00.001Z,11.88
2017-03-15T14:52:09.633Z,12.2
2017-03-15T14:53:19.894Z,12.54
2017-03-15T14:54:30.158Z,12.81
2017-03-15T14:55:39.475Z,12.9
2017-03-15T14:56:49.735Z,12.65
2017-03-15T14:57:59.687Z,12.66
2017-03-15T14:59:09.329Z,12.47
2017-03-15T15:00:19.594Z,12.5
2017-03-15T15:01:29.549Z,12.43
2017-03-15T15:02:39.818Z,11.97
2017-03-15T15:03:50.078Z,11.45
2017-03-15T15:04:59.715Z,11.52
2017-03-15T15:06:09.984Z,11.65
2017-03-15T15:07:20.247Z,11.67
2017-03-15T15:08:30.510Z,11.53
2017-03-15T15:09:40.770Z,11.7
2017-03-15T15:10:51.040Z,11.93
2017-03-15T15:12:01.310Z,11.97
2017-03-15T15:13:11.259Z,12.25
2017-03-15T15:14:21.207Z,12.35
2017-03-15T15:15:31.152Z,12.65
2017-03-15T15:16:40.472Z,12.63
2017-03-15T15:17:50.732Z,13.01
2017-03-15T15:19:00.675Z,13.26
2017-03-15T15:20:10.325Z,13.28
2017-03-15T15:21:20.278Z,13.31
2017-03-15T15:22:30.544Z,12.91
2017-03-15T15:23:40.800Z,12.78
2017-03-15T15:24:50.749Z,12.98
2017-03-15T15:26:01.013Z,12.9
2017-03-15T15:27:11.281Z,13.24
2017-03-15T15:28:21.543Z,13.27
2017-03-15T15:29:31.814Z,13.31
2017-03-15T15:30:41.450Z,13.16